createdAt,value
2022-12-23T00:08:42.086Z,74750.88
2022-12-23T00:18:49.097Z,74746.84
2022-12-23T00:28:58.858Z,74742.78
2022-12-23T00:39:21.840Z,74744.81
2022-12-23T00:49:42.126Z,74732.66
2022-12-23T00:59:45.518Z,74748.84
2022-12-23T01:09:50.084Z,74750.88
2022-12-23T01:19:54.391Z,74756.94
2022-12-23T01:30:01.837Z,74754.94
2022-12-23T01:40:04.340Z,74767.06
2022-12-23T01:50:23.601Z,74758.97
2022-12-23T02:00:44.302Z,74754.94
2022-12-23T02:11:13.113Z,74754.94
2022-12-23T02:21:21.670Z,74758.97
2022-12-23T02:31:37.143Z,74758.97
2022-12-23T02:41:52.462Z,74771.09
2022-12-23T02:51:58.162Z,74765.03
2022-12-23T03:02:01.271Z,74771.09
2022-12-23T03:12:19.888Z,74761.00
2022-12-23T03:22:44.125Z,74754.94
2022-12-23T03:32:54.262Z,74769.09
2022-12-23T03:43:04.724Z,74769.09
2022-12-23T03:53:12.373Z,74758.97
2022-12-23T04:03:22.940Z,74763.03
2022-12-23T04:13:27.447Z,74761.00
2022-12-23T04:23:31.932Z,74767.06
2022-12-23T04:33:34.019Z,74771.09
2022-12-23T04:43:39.023Z,74779.19
2022-12-23T04:53:41.179Z,74803.47
2022-12-23T05:03:43.366Z,74803.47
2022-12-23T05:13:47.660Z,74823.72
2022-12-23T05:23:50.027Z,74827.75
2022-12-23T05:33:54.596Z,74827.75
2022-12-23T05:43:56.767Z,74831.81
2022-12-23T05:53:58.923Z,74839.91
2022-12-23T06:04:01.005Z,74860.13
2022-12-23T06:14:03.126Z,74854.06
2022-12-23T06:24:10.407Z,74882.41
2022-12-23T06:34:12.434Z,74898.59
2022-12-23T06:44:14.536Z,74898.59
2022-12-23T06:54:18.644Z,74922.88
2022-12-23T07:04:23.468Z,74914.78
2022-12-23T07:14:27.958Z,74924.88
2022-12-23T07:24:30.167Z,74924.88
2022-12-23T07:34:32.342Z,74910.72
2022-12-23T07:44:39.566Z,74900.59
2022-12-23T07:54:43.910Z,74904.66
2022-12-23T08:04:46.729Z,74916.78
2022-12-23T08:14:53.949Z,74920.84
2022-12-23T08:25:01.223Z,74908.69
2022-12-23T08:35:03.523Z,74916.78
2022-12-23T08:45:08.135Z,74896.56
2022-12-23T08:55:14.930Z,74880.38
2022-12-23T09:05:17.151Z,74845.97
2022-12-23T09:15:21.781Z,74833.84
2022-12-23T09:25:28.712Z,74825.75
2022-12-23T09:35:31.436Z,74825.75
2022-12-23T09:46:04.199Z,74825.75
2022-12-23T09:56:19.735Z,74821.69
2022-12-23T10:06:28.001Z,74795.38
2022-12-23T10:16:34.772Z,74811.56
2022-12-23T10:26:53.100Z,74817.66
2022-12-23T10:37:03.062Z,74815.63
2022-12-23T10:47:27.322Z,74803.47
2022-12-23T10:57:34.306Z,74797.41
2022-12-23T11:07:45.472Z,74803.47
2022-12-23T11:18:01.727Z,74811.56
2022-12-23T11:28:11.426Z,74793.38
2022-12-23T11:38:14.216Z,74809.56
2022-12-23T11:48:30.297Z,74823.72
2022-12-23T11:58:48.801Z,74803.47
2022-12-23T12:08:54.712Z,74811.56
2022-12-23T12:19:06.695Z,74807.53
2022-12-23T12:29:17.258Z,74797.41
2022-12-23T12:39:26.435Z,74795.38
2022-12-23T12:49:52.074Z,74791.34
2022-12-23T13:00:05.623Z,74783.25
2022-12-23T13:10:34.704Z,74779.19
2022-12-23T13:21:00.274Z,74777.19
2022-12-23T13:31:14.225Z,74763.03
2022-12-23T13:41:51.644Z,74742.78
2022-12-23T13:52:04.418Z,74712.44
2022-12-23T14:02:55.904Z,74686.13
2022-12-23T14:13:03.648Z,74676.00
2022-12-23T14:23:29.963Z,74661.84
2022-12-23T14:33:38.403Z,74665.91
2022-12-23T14:43:51.341Z,74671.97
2022-12-23T14:53:58.844Z,74676.00
2022-12-23T15:04:27.918Z,74678.03
2022-12-23T15:14:38.356Z,74676.00
2022-12-23T15:24:45.908Z,74676.00
2022-12-23T15:34:49.292Z,74663.88
2022-12-23T15:44:51.814Z,74663.88
2022-12-23T15:55:31.095Z,74651.75
2022-12-23T16:05:36.087Z,74645.66
2022-12-23T16:15:41.538Z,74647.69
2022-12-23T16:25:52.892Z,74629.47
2022-12-23T16:36:21.583Z,74621.38
2022-12-23T16:46:27.143Z,74613.28
2022-12-23T16:56:34.701Z,74605.19
2022-12-23T17:06:41.144Z,74607.22
2022-12-23T17:16:50.106Z,74613.28
2022-12-23T17:26:54.092Z,74605.19
2022-12-23T17:37:02.039Z,74605.19
2022-12-23T17:47:14.631Z,74609.25
2022-12-23T17:57:20.036Z,74617.34
2022-12-23T18:07:26.843Z,74625.44
2022-12-23T18:17:33.231Z,74645.66
2022-12-23T18:27:40.012Z,74657.81
2022-12-23T18:37:42.371Z,74694.22
2022-12-23T18:47:46.825Z,74720.53
2022-12-23T18:57:49.608Z,74746.84
2022-12-23T19:07:53.460Z,74754.94
2022-12-23T19:17:55.695Z,74777.19
2022-12-23T19:28:00.108Z,74783.25
2022-12-23T19:38:02.276Z,74817.66
2022-12-23T19:48:12.271Z,74827.75
2022-12-23T19:58:16.893Z,74845.97
2022-12-23T20:08:18.976Z,74860.13
2022-12-23T20:18:23.426Z,74858.13
2022-12-23T20:28:28.453Z,74876.31
2022-12-23T20:38:30.518Z,74882.41
2022-12-23T20:48:34.590Z,74882.41
2022-12-23T20:58:56.514Z,74876.31
2022-12-23T21:09:05.969Z,74878.34
2022-12-23T21:19:12.273Z,74876.31
2022-12-23T21:29:19.043Z,74876.31
2022-12-23T21:39:26.142Z,74876.31
2022-12-23T21:49:32.221Z,74872.28
2022-12-23T21:59:36.809Z,74888.47
2022-12-23T22:09:41.088Z,74912.75
2022-12-23T22:19:45.501Z,74916.78
2022-12-23T22:29:47.824Z,74900.59
2022-12-23T22:39:52.704Z,74892.50
2022-12-23T22:49:57.522Z,74910.72
2022-12-23T23:00:00.745Z,74914.78
2022-12-23T23:10:12.288Z,74920.84
2022-12-23T23:20:19.849Z,74920.84
2022-12-23T23:30:24.486Z,74912.75
2022-12-23T23:40:27.317Z,74916.78
2022-12-23T23:50:31.637Z,74892.50
